map of TTU home
Great Circle Mapper logo
TTU - Airport
Location
City:  Tetuan, Morocco
Name:Sania Ramel
ICAO / IATA:GMTN / TTU

Details
Type:Airport (Aerodrome, Airfield)
Use:Public/Civil
Latitude:3535'40"N (35.594333)
Longitude:519'12"W (-5.320018)
Datum:WGS 1984
Elevation:10 ft (3 m)
Runways:1
Longest:7546 × 148 ft (2300 × 45 m), paved

Time
Time Zone:UTC+0 (DST+1)
Local Time:

Weather
METAR:GMTN 291600Z 26011KT CAVOK 33/13 Q1010 NOSIG

Related Locations
Nearby:
Farthest:WRE: 12426 mi / 19998 km
Whangarei, NZ

Find:

   beyond  
but within

Other Information
Maps:
NOTAMs:
Links:
Sources:

  
flag of Morocco   

Sectional Chart

Flight Planning
at skyvector.com

Satellite Image

Google Maps Satellite View

 

Copyright © 2004-2014 Karl L. Swartz. All rights reserved.
The Great Circle Mapper name and logo are trademarks of the Great Circle Mapper.
All other trademarks mentioned herein belong to their respective owners.
Please see credits for attibutions and further copyright information.

  Follow gcmap on Facebook Follow gcmap on Twitter

hCard Microformat

Geo Microformat